METAR Data
IDs: Format: Raw Decoded Include TAF

Data at: 0808 UTC 18 Sep 2021

KIKV 180755Z AUTO 01003KT 10SM FEW070 12/09 A3022 RMK AO2